createdAt,value
2018-12-21T00:01:33.262Z,8.78
2018-12-21T00:04:02.728Z,8.60
2018-12-21T00:06:32.141Z,10.17
2018-12-21T00:09:01.548Z,9.35
2018-12-21T00:11:31.011Z,9.13
2018-12-21T00:14:00.416Z,9.83
2018-12-21T00:16:29.971Z,9.90
2018-12-21T00:18:59.569Z,8.48
2018-12-21T00:21:29.077Z,8.68
2018-12-21T00:23:58.533Z,8.17
2018-12-21T00:26:27.964Z,8.95
2018-12-21T00:28:57.417Z,8.80
2018-12-21T00:31:32.079Z,8.38
2018-12-21T00:34:06.803Z,9.05
2018-12-21T00:36:41.481Z,9.43
2018-12-21T00:39:16.102Z,9.50
2018-12-21T00:41:44.654Z,9.05
2018-12-21T00:44:19.449Z,8.13
2018-12-21T00:46:54.119Z,8.83
2018-12-21T00:49:23.627Z,9.43
2018-12-21T00:51:53.056Z,9.23
2018-12-21T00:54:22.530Z,8.80
2018-12-21T00:56:53.036Z,8.03
2018-12-21T00:59:23.385Z,8.20
2018-12-21T01:01:52.903Z,9.35
2018-12-21T01:04:22.530Z,9.23
2018-12-21T01:06:52.172Z,9.35
2018-12-21T01:09:21.655Z,9.08
2018-12-21T01:11:51.218Z,9.00
2018-12-21T01:14:20.842Z,10.50
2018-12-21T01:16:50.360Z,10.75
2018-12-21T01:19:19.846Z,8.53
2018-12-21T01:21:49.463Z,8.75
2018-12-21T01:24:18.954Z,8.95
2018-12-21T01:26:48.373Z,9.48
2018-12-21T01:29:17.804Z,10.18
2018-12-21T01:31:47.234Z,9.20
2018-12-21T01:34:16.663Z,9.10
2018-12-21T01:36:46.113Z,9.20
2018-12-21T01:39:15.572Z,9.33
2018-12-21T01:41:45.048Z,8.95
2018-12-21T01:47:10.013Z,9.80
2018-12-21T01:49:39.549Z,8.30
2018-12-21T01:52:09.038Z,9.43
2018-12-21T01:54:38.461Z,9.55
2018-12-21T01:57:07.848Z,9.70
2018-12-21T01:59:37.376Z,8.98
2018-12-21T02:02:06.949Z,10.03
2018-12-21T02:04:36.337Z,9.38
2018-12-21T02:07:06.749Z,9.98
2018-12-21T02:09:36.142Z,9.95
2018-12-21T02:12:05.655Z,8.80
2018-12-21T02:14:35.192Z,9.38
2018-12-21T02:17:04.637Z,9.10
2018-12-21T02:19:35.150Z,9.38
2018-12-21T02:22:04.584Z,9.45
2018-12-21T02:27:01.709Z,9.48
2018-12-21T02:29:31.109Z,9.15
2018-12-21T02:32:00.587Z,9.28
2018-12-21T02:36:56.222Z,8.08
2018-12-21T02:39:25.613Z,8.03
2018-12-21T02:41:55.077Z,8.48
2018-12-21T02:44:24.519Z,8.43
2018-12-21T02:46:53.902Z,8.25
2018-12-21T02:49:23.323Z,7.87
2018-12-21T02:51:53.034Z,8.63
2018-12-21T02:54:22.461Z,8.60
2018-12-21T02:56:51.926Z,7.73
2018-12-21T02:59:21.372Z,7.70
2018-12-21T03:01:50.900Z,7.97
2018-12-21T03:04:20.329Z,8.93
2018-12-21T03:06:49.806Z,9.25
2018-12-21T03:09:19.233Z,9.20
2018-12-21T03:14:45.180Z,9.45
2018-12-21T03:17:14.784Z,9.40
2018-12-21T03:19:44.219Z,8.53
2018-12-21T03:22:15.036Z,8.40
2018-12-21T03:24:44.742Z,8.60
2018-12-21T03:27:14.194Z,7.62
2018-12-21T03:29:43.620Z,8.20
2018-12-21T03:32:13.026Z,9.00
2018-12-21T03:34:42.524Z,7.05
2018-12-21T03:37:12.066Z,8.08
2018-12-21T03:39:41.491Z,7.90
2018-12-21T03:42:10.916Z,7.42
2018-12-21T03:44:40.666Z,8.53
2018-12-21T03:47:10.102Z,8.25
2018-12-21T03:49:39.509Z,7.10
2018-12-21T03:52:10.098Z,8.95
2018-12-21T03:54:39.510Z,7.30
2018-12-21T03:57:09.158Z,7.50
2018-12-21T03:59:38.591Z,7.55
2018-12-21T04:02:07.981Z,7.10
2018-12-21T04:04:38.664Z,7.65
2018-12-21T04:07:08.074Z,7.90
2018-12-21T04:12:34.979Z,7.42
2018-12-21T04:15:04.971Z,8.05
2018-12-21T04:17:34.530Z,8.33
2018-12-21T04:20:04.239Z,7.55
2018-12-21T04:22:34.260Z,7.47
2018-12-21T04:25:04.157Z,7.33
2018-12-21T04:27:33.617Z,6.70
2018-12-21T04:33:08.426Z,6.80
2018-12-21T04:35:37.825Z,7.30
2018-12-21T04:38:07.315Z,6.60
2018-12-21T04:40:36.820Z,6.42
2018-12-21T04:43:06.213Z,7.00
2018-12-21T04:45:35.646Z,6.80
2018-12-21T04:48:05.314Z,6.47
2018-12-21T04:50:34.834Z,7.17
2018-12-21T04:53:04.365Z,6.35
2018-12-21T04:55:34.797Z,7.78
2018-12-21T04:58:04.404Z,5.92
2018-12-21T05:00:33.818Z,5.60
2018-12-21T05:03:06.997Z,5.80
2018-12-21T05:05:36.349Z,5.67
2018-12-21T05:08:05.742Z,5.87
2018-12-21T05:10:35.787Z,6.83
2018-12-21T05:13:05.463Z,5.50
2018-12-21T05:15:34.886Z,6.03
2018-12-21T05:18:05.013Z,5.60
2018-12-21T05:20:34.471Z,6.10
2018-12-21T05:23:03.982Z,5.80
2018-12-21T05:25:33.372Z,5.60
2018-12-21T05:28:02.864Z,6.78
2018-12-21T05:30:32.248Z,5.85
2018-12-21T05:33:02.480Z,4.97
2018-12-21T05:35:31.858Z,5.63
2018-12-21T05:38:01.206Z,5.45
2018-12-21T05:40:30.755Z,6.10
2018-12-21T05:43:00.153Z,5.90
2018-12-21T05:45:29.549Z,4.60
2018-12-21T05:47:58.985Z,4.95
2018-12-21T05:50:28.388Z,5.40
2018-12-21T05:53:00.902Z,4.97
2018-12-21T05:55:29.231Z,4.97
2018-12-21T05:57:58.574Z,4.33
2018-12-21T06:00:27.945Z,4.62
2018-12-21T06:02:57.384Z,5.40
2018-12-21T06:05:26.781Z,5.22
2018-12-21T06:07:56.266Z,5.05
2018-12-21T06:10:25.678Z,4.72
2018-12-21T06:12:55.034Z,5.07
2018-12-21T06:15:24.433Z,5.08
2018-12-21T06:17:53.867Z,4.90
2018-12-21T06:20:23.286Z,4.73
2018-12-21T06:22:52.654Z,5.08
2018-12-21T06:25:22.115Z,3.85
2018-12-21T06:27:51.530Z,4.40
2018-12-21T06:30:20.900Z,4.28
2018-12-21T06:32:50.293Z,4.00
2018-12-21T06:35:19.643Z,5.10
2018-12-21T06:37:49.054Z,4.50
2018-12-21T06:40:19.336Z,3.90
2018-12-21T06:42:50.729Z,4.40
2018-12-21T06:45:20.117Z,4.22
2018-12-21T06:47:49.509Z,5.30
2018-12-21T06:50:18.876Z,4.40
2018-12-21T06:52:48.364Z,4.60
2018-12-21T06:55:17.772Z,4.60
2018-12-21T06:57:47.109Z,3.90
2018-12-21T07:00:16.848Z,4.40
2018-12-21T07:02:46.204Z,4.20
2018-12-21T07:05:15.560Z,4.50
2018-12-21T07:07:44.985Z,4.53
2018-12-21T07:10:14.365Z,4.45
2018-12-21T07:12:43.753Z,4.67
2018-12-21T07:15:13.385Z,4.85
2018-12-21T07:17:42.841Z,3.90
2018-12-21T07:20:12.294Z,3.50
2018-12-21T07:22:41.725Z,4.10
2018-12-21T07:25:11.077Z,4.27
2018-12-21T07:27:40.433Z,4.47
2018-12-21T07:30:12.492Z,3.75
2018-12-21T07:32:42.015Z,4.25
2018-12-21T07:35:15.997Z,4.20
2018-12-21T07:37:45.411Z,4.10
2018-12-21T07:40:15.041Z,4.08
2018-12-21T07:42:44.421Z,3.40
2018-12-21T07:45:13.990Z,3.80
2018-12-21T07:47:43.385Z,4.20
2018-12-21T07:50:12.965Z,4.13
2018-12-21T07:52:42.365Z,3.92
2018-12-21T07:55:11.903Z,4.35
2018-12-21T07:57:41.277Z,3.45
2018-12-21T08:00:12.661Z,3.45
2018-12-21T08:02:42.046Z,4.30
2018-12-21T08:05:11.437Z,3.65
2018-12-21T08:07:40.858Z,3.60
2018-12-21T08:10:18.608Z,3.90
2018-12-21T08:12:48.021Z,4.20
2018-12-21T08:15:17.453Z,3.40
2018-12-21T08:17:47.396Z,3.90
2018-12-21T08:20:17.183Z,4.45
2018-12-21T08:22:46.516Z,2.97
2018-12-21T08:25:16.019Z,4.08
2018-12-21T08:27:45.537Z,3.20
2018-12-21T08:30:14.917Z,4.10
2018-12-21T08:32:44.362Z,3.80
2018-12-21T08:35:13.730Z,3.90
2018-12-21T08:37:43.107Z,3.33
2018-12-21T08:40:12.615Z,2.95
2018-12-21T08:42:42.005Z,3.70
2018-12-21T08:45:11.663Z,3.55
2018-12-21T08:47:41.094Z,3.20
2018-12-21T08:50:12.476Z,3.65
2018-12-21T08:55:47.921Z,3.87
2018-12-21T08:58:17.313Z,3.37
2018-12-21T09:00:46.822Z,2.72
2018-12-21T09:03:16.247Z,3.30
2018-12-21T09:05:45.613Z,2.62
2018-12-21T09:08:15.003Z,2.95
2018-12-21T09:10:44.484Z,2.70
2018-12-21T09:13:14.009Z,2.70
2018-12-21T09:15:43.421Z,3.02
2018-12-21T09:18:12.954Z,2.67
2018-12-21T09:20:42.428Z,2.62
2018-12-21T09:23:11.874Z,3.20
2018-12-21T09:25:41.375Z,2.60
2018-12-21T09:28:10.797Z,2.98
2018-12-21T09:30:40.148Z,2.30
2018-12-21T09:33:09.589Z,2.30
2018-12-21T09:35:39.042Z,2.15
2018-12-21T09:38:08.402Z,1.90
2018-12-21T09:40:38.184Z,2.52
2018-12-21T09:46:03.272Z,2.10
2018-12-21T09:48:32.617Z,2.17
2018-12-21T09:51:01.993Z,2.40
2018-12-21T09:53:31.406Z,2.17
2018-12-21T09:56:00.768Z,2.52
2018-12-21T09:58:30.139Z,2.40
2018-12-21T10:00:59.618Z,2.85
2018-12-21T10:03:29.182Z,2.40
2018-12-21T10:05:58.781Z,2.27
2018-12-21T10:08:28.164Z,2.45
2018-12-21T10:10:57.613Z,2.10
2018-12-21T10:13:27.049Z,2.95
2018-12-21T10:15:56.488Z,2.12
2018-12-21T10:18:25.920Z,2.42
2018-12-21T10:20:55.356Z,2.22
2018-12-21T10:23:24.832Z,2.50
2018-12-21T10:25:54.240Z,2.35
2018-12-21T10:28:23.598Z,1.90
2018-12-21T10:30:52.997Z,2.20
2018-12-21T10:33:22.418Z,1.75
2018-12-21T10:35:51.758Z,2.55
2018-12-21T10:38:21.149Z,2.40
2018-12-21T10:40:50.519Z,1.80
2018-12-21T10:43:19.879Z,2.40
2018-12-21T10:45:49.351Z,2.42
2018-12-21T10:48:18.772Z,1.77
2018-12-21T10:50:48.218Z,1.80
2018-12-21T10:53:17.742Z,2.50
2018-12-21T10:55:47.359Z,2.58
2018-12-21T10:58:16.772Z,2.17
2018-12-21T11:00:46.159Z,2.30
2018-12-21T11:03:15.698Z,2.25
2018-12-21T11:05:45.230Z,2.40
2018-12-21T11:08:14.603Z,1.95
2018-12-21T11:10:45.873Z,2.30
2018-12-21T11:13:15.452Z,2.37
2018-12-21T11:15:45.672Z,2.30
2018-12-21T11:18:15.075Z,2.30
2018-12-21T11:20:44.425Z,3.15
2018-12-21T11:23:14.030Z,2.20
2018-12-21T11:25:43.662Z,2.45
2018-12-21T11:28:13.104Z,1.77
2018-12-21T11:30:42.460Z,1.95
2018-12-21T11:33:11.849Z,2.10
2018-12-21T11:35:41.212Z,2.30
2018-12-21T11:38:10.591Z,2.45
2018-12-21T11:40:39.997Z,1.83
2018-12-21T11:43:09.439Z,1.85
2018-12-21T11:45:38.849Z,2.50
2018-12-21T11:48:08.399Z,3.07
2018-12-21T11:50:37.761Z,2.12
2018-12-21T11:53:07.227Z,2.20
2018-12-21T11:55:36.635Z,2.20
2018-12-21T11:58:06.066Z,3.62
2018-12-21T12:00:35.449Z,2.42
2018-12-21T12:03:04.953Z,2.10
2018-12-21T12:05:34.377Z,2.17
2018-12-21T12:08:03.832Z,2.65
2018-12-21T12:10:33.185Z,2.20
2018-12-21T12:13:02.559Z,2.20
2018-12-21T12:15:32.050Z,2.90
2018-12-21T12:18:01.399Z,1.80
2018-12-21T12:20:30.774Z,3.17
2018-12-21T12:23:00.232Z,1.70
2018-12-21T12:28:45.199Z,1.80
2018-12-21T12:31:14.734Z,2.20
2018-12-21T12:33:44.800Z,1.52
2018-12-21T12:36:14.965Z,1.77
2018-12-21T12:42:13.317Z,1.30
2018-12-21T12:44:43.168Z,1.35
2018-12-21T12:47:12.865Z,1.60
2018-12-21T12:53:03.712Z,1.95
2018-12-21T12:55:39.673Z,1.30
2018-12-21T12:58:19.651Z,1.80
2018-12-21T13:01:03.056Z,1.98
2018-12-21T13:03:39.500Z,1.92
2018-12-21T13:06:20.131Z,1.70
2018-12-21T13:12:15.516Z,2.10
2018-12-21T13:21:14.414Z,2.10
2018-12-21T13:23:44.152Z,2.40
2018-12-21T13:26:15.699Z,1.67
2018-12-21T13:28:48.784Z,1.70
2018-12-21T13:31:43.182Z,2.10
2018-12-21T13:37:32.350Z,1.20
2018-12-21T14:02:16.645Z,0.90
2018-12-21T14:04:46.141Z,1.02
2018-12-21T14:07:15.658Z,0.90
2018-12-21T14:25:07.450Z,0.90
2018-12-21T14:27:42.548Z,0.90
2018-12-21T14:33:17.350Z,1.10
2018-12-21T14:35:46.812Z,1.02
2018-12-21T14:38:16.325Z,0.80
2018-12-21T14:40:45.814Z,1.22
2018-12-21T14:43:15.258Z,1.20
2018-12-21T14:46:09.528Z,1.20
2018-12-21T14:48:52.016Z,1.47
2018-12-21T14:54:27.541Z,1.10
2018-12-21T14:57:03.842Z,1.40
2018-12-21T14:59:34.336Z,0.90
2018-12-21T15:02:03.907Z,1.20
2018-12-21T15:25:52.097Z,1.55
2018-12-21T16:23:55.865Z,1.75
2018-12-21T16:45:15.838Z,1.60
2018-12-21T16:48:47.383Z,1.60
2018-12-21T16:51:25.052Z,1.20
2018-12-21T16:54:00.298Z,1.20
2018-12-21T17:00:43.087Z,2.08
2018-12-21T17:03:21.034Z,1.90
2018-12-21T17:10:22.666Z,3.20
2018-12-21T17:13:04.228Z,3.10
2018-12-21T17:19:27.461Z,3.30
2018-12-21T17:22:01.481Z,3.65
2018-12-21T17:24:43.352Z,4.20
2018-12-21T17:27:19.099Z,3.67
2018-12-21T17:29:54.290Z,3.87
2018-12-21T18:19:39.342Z,4.47
2018-12-21T18:22:15.529Z,4.15
2018-12-21T18:25:00.353Z,3.40
2018-12-21T19:12:15.609Z,2.22
2018-12-21T19:14:45.597Z,2.90
2018-12-21T19:17:15.253Z,3.02
2018-12-21T20:13:40.913Z,2.08
2018-12-21T20:16:18.085Z,2.80
2018-12-21T21:03:10.329Z,2.00
2018-12-21T21:12:15.024Z,2.60
2018-12-21T21:14:44.473Z,2.90
2018-12-21T21:17:13.943Z,4.20
2018-12-21T21:19:43.396Z,3.87
2018-12-21T21:22:12.839Z,3.40
2018-12-21T21:24:42.298Z,3.17
2018-12-21T21:27:11.797Z,4.25
2018-12-21T21:29:41.701Z,4.30
2018-12-21T21:32:12.278Z,5.22
